sensor_id;sensor_type;location;lat;lon;timestamp;pressure;altitude;pressure_sealevel;temperature;humidity
27980;BME280;15315;50.836;4.430;2023-09-08T00:02:20;101097.34;;;26.23;72.12
27980;BME280;15315;50.836;4.430;2023-09-08T00:12:20;101091.72;;;26.10;72.21
27980;BME280;15315;50.836;4.430;2023-09-08T00:22:21;101099.63;;;26.13;71.79
27980;BME280;15315;50.836;4.430;2023-09-08T00:32:21;101087.44;;;26.08;71.38
27980;BME280;15315;50.836;4.430;2023-09-08T00:42:21;101086.03;;;26.18;70.49
27980;BME280;15315;50.836;4.430;2023-09-08T00:52:22;101081.09;;;26.07;70.26
27980;BME280;15315;50.836;4.430;2023-09-08T01:02:22;101084.13;;;26.19;68.88
27980;BME280;15315;50.836;4.430;2023-09-08T01:12:23;101098.81;;;26.19;68.36
27980;BME280;15315;50.836;4.430;2023-09-08T01:22:41;101094.09;;;26.13;68.21
27980;BME280;15315;50.836;4.430;2023-09-08T01:32:45;101086.63;;;26.07;67.85
27980;BME280;15315;50.836;4.430;2023-09-08T01:42:46;101082.38;;;26.11;66.97
27980;BME280;15315;50.836;4.430;2023-09-08T01:52:47;101088.41;;;25.94;67.88
27980;BME280;15315;50.836;4.430;2023-09-08T02:02:47;101083.31;;;25.76;68.73
27980;BME280;15315;50.836;4.430;2023-09-08T02:12:47;101084.66;;;25.59;69.49
27980;BME280;15315;50.836;4.430;2023-09-08T02:22:52;101076.88;;;25.48;70.29
27980;BME280;15315;50.836;4.430;2023-09-08T02:32:53;101072.78;;;25.44;70.76
27980;BME280;15315;50.836;4.430;2023-09-08T02:42:55;101069.09;;;25.37;70.90
27980;BME280;15315;50.836;4.430;2023-09-08T02:52:55;101075.75;;;25.42;70.18
27980;BME280;15315;50.836;4.430;2023-09-08T03:02:56;101072.94;;;25.36;70.35
27980;BME280;15315;50.836;4.430;2023-09-08T03:12:57;101071.00;;;25.36;69.82
27980;BME280;15315;50.836;4.430;2023-09-08T03:22:57;101050.84;;;25.36;69.38
27980;BME280;15315;50.836;4.430;2023-09-08T03:32:59;101051.34;;;25.24;69.80
27980;BME280;15315;50.836;4.430;2023-09-08T03:42:59;101046.44;;;25.20;70.04
27980;BME280;15315;50.836;4.430;2023-09-08T03:52:59;101054.91;;;25.04;69.76
27980;BME280;15315;50.836;4.430;2023-09-08T04:03:00;101040.06;;;25.05;70.18
27980;BME280;15315;50.836;4.430;2023-09-08T04:13:00;101039.81;;;24.85;70.80
27980;BME280;15315;50.836;4.430;2023-09-08T04:23:00;101042.75;;;24.84;71.17
27980;BME280;15315;50.836;4.430;2023-09-08T04:33:01;101048.28;;;24.84;70.95
27980;BME280;15315;50.836;4.430;2023-09-08T04:43:01;101048.59;;;24.74;71.68
27980;BME280;15315;50.836;4.430;2023-09-08T04:53:02;101052.09;;;24.53;73.05
27980;BME280;15315;50.836;4.430;2023-09-08T05:03:02;101059.00;;;24.35;74.24
27980;BME280;15315;50.836;4.430;2023-09-08T05:13:03;101050.75;;;24.49;73.80
27980;BME280;15315;50.836;4.430;2023-09-08T05:23:03;101066.47;;;24.63;72.88
27980;BME280;15315;50.836;4.430;2023-09-08T05:33:04;101069.41;;;24.62;73.06
27980;BME280;15315;50.836;4.430;2023-09-08T05:43:04;101076.78;;;24.47;74.70
27980;BME280;15315;50.836;4.430;2023-09-08T05:53:04;101086.13;;;24.60;74.84
27980;BME280;15315;50.836;4.430;2023-09-08T06:03:05;101086.72;;;24.71;75.72
27980;BME280;15315;50.836;4.430;2023-09-08T06:13:05;101093.03;;;25.00;74.94
27980;BME280;15315;50.836;4.430;2023-09-08T06:23:06;101101.03;;;25.24;74.03
27980;BME280;15315;50.836;4.430;2023-09-08T06:33:06;101106.13;;;25.42;74.17
27980;BME280;15315;50.836;4.430;2023-09-08T06:43:09;101106.56;;;25.81;71.65
27980;BME280;15315;50.836;4.430;2023-09-08T06:53:10;101114.38;;;25.99;71.23
27980;BME280;15315;50.836;4.430;2023-09-08T07:03:10;101110.28;;;26.16;70.80
27980;BME280;15315;50.836;4.430;2023-09-08T07:13:11;101108.38;;;26.17;71.63
27980;BME280;15315;50.836;4.430;2023-09-08T07:23:11;101123.97;;;26.52;70.07
27980;BME280;15315;50.836;4.430;2023-09-08T07:33:11;101112.84;;;26.73;69.29
27980;BME280;15315;50.836;4.430;2023-09-08T07:43:12;101118.72;;;26.91;68.99
27980;BME280;15315;50.836;4.430;2023-09-08T07:53:12;101120.31;;;27.13;68.32
27980;BME280;15315;50.836;4.430;2023-09-08T08:03:13;101122.78;;;27.43;66.89
27980;BME280;15315;50.836;4.430;2023-09-08T08:13:13;101128.63;;;27.74;66.05
27980;BME280;15315;50.836;4.430;2023-09-08T08:23:14;101122.94;;;28.02;64.89
27980;BME280;15315;50.836;4.430;2023-09-08T08:33:14;101120.81;;;28.04;63.56
27980;BME280;15315;50.836;4.430;2023-09-08T08:43:14;101121.44;;;28.39;62.14
27980;BME280;15315;50.836;4.430;2023-09-08T08:53:15;101119.72;;;28.44;61.59
27980;BME280;15315;50.836;4.430;2023-09-08T09:03:17;101109.41;;;28.84;60.73
27980;BME280;15315;50.836;4.430;2023-09-08T09:13:18;101122.63;;;29.08;60.20
27980;BME280;15315;50.836;4.430;2023-09-08T09:23:35;101129.31;;;29.38;59.47
27980;BME280;15315;50.836;4.430;2023-09-08T09:33:35;101124.31;;;29.53;58.94
27980;BME280;15315;50.836;4.430;2023-09-08T09:43:36;101130.28;;;29.95;58.24
27980;BME280;15315;50.836;4.430;2023-09-08T09:53:40;101121.88;;;30.01;57.58
27980;BME280;15315;50.836;4.430;2023-09-08T10:03:42;101126.56;;;30.32;57.44
27980;BME280;15315;50.836;4.430;2023-09-08T10:13:46;101127.50;;;30.26;55.67
27980;BME280;15315;50.836;4.430;2023-09-08T10:23:59;101126.16;;;30.53;56.66
27980;BME280;15315;50.836;4.430;2023-09-08T10:34:00;101127.88;;;30.54;56.14
27980;BME280;15315;50.836;4.430;2023-09-08T10:44:02;101119.84;;;31.07;54.39
27980;BME280;15315;50.836;4.430;2023-09-08T10:54:05;101121.53;;;31.26;51.94
27980;BME280;15315;50.836;4.430;2023-09-08T11:04:06;101126.31;;;31.37;49.39
27980;BME280;15315;50.836;4.430;2023-09-08T11:14:09;101115.63;;;31.53;47.76
27980;BME280;15315;50.836;4.430;2023-09-08T11:24:10;101117.25;;;31.24;46.48
27980;BME280;15315;50.836;4.430;2023-09-08T11:34:16;101124.06;;;30.92;45.04
27980;BME280;15315;50.836;4.430;2023-09-08T11:44:18;101116.97;;;31.91;44.88
27980;BME280;15315;50.836;4.430;2023-09-08T11:54:18;101116.31;;;32.08;44.04
27980;BME280;15315;50.836;4.430;2023-09-08T12:04:19;101103.19;;;32.08;43.38
27980;BME280;15315;50.836;4.430;2023-09-08T12:14:20;101111.00;;;31.76;43.37
27980;BME280;15315;50.836;4.430;2023-09-08T12:34:54;101118.84;;;32.09;43.91
27980;BME280;15315;50.836;4.430;2023-09-08T12:44:55;101104.97;;;32.55;44.12
27980;BME280;15315;50.836;4.430;2023-09-08T12:54:55;101098.88;;;32.70;43.84
27980;BME280;15315;50.836;4.430;2023-09-08T13:04:56;101095.59;;;32.96;43.45
27980;BME280;15315;50.836;4.430;2023-09-08T13:14:56;101084.69;;;32.72;43.96
27980;BME280;15315;50.836;4.430;2023-09-08T13:24:57;101076.38;;;32.88;43.71
27980;BME280;15315;50.836;4.430;2023-09-08T13:34:57;101069.47;;;33.02;42.73
27980;BME280;15315;50.836;4.430;2023-09-08T13:44:57;101064.94;;;33.41;43.33
27980;BME280;15315;50.836;4.430;2023-09-08T13:54:58;101061.53;;;33.67;42.88
27980;BME280;15315;50.836;4.430;2023-09-08T14:04:58;101058.97;;;33.09;44.08
27980;BME280;15315;50.836;4.430;2023-09-08T14:14:59;101049.91;;;33.02;43.64
27980;BME280;15315;50.836;4.430;2023-09-08T14:24:59;101058.69;;;33.23;43.89
27980;BME280;15315;50.836;4.430;2023-09-08T14:34:59;101056.25;;;33.54;43.21
27980;BME280;15315;50.836;4.430;2023-09-08T14:45:00;101049.75;;;33.37;43.09
27980;BME280;15315;50.836;4.430;2023-09-08T14:55:00;101044.13;;;33.49;43.79
27980;BME280;15315;50.836;4.430;2023-09-08T15:05:03;101045.78;;;33.61;43.50
27980;BME280;15315;50.836;4.430;2023-09-08T15:15:04;101049.22;;;33.52;43.71
27980;BME280;15315;50.836;4.430;2023-09-08T15:25:05;101041.00;;;33.45;43.91
27980;BME280;15315;50.836;4.430;2023-09-08T15:35:06;101033.84;;;33.38;43.68
27980;BME280;15315;50.836;4.430;2023-09-08T15:45:07;101028.34;;;33.88;43.20
27980;BME280;15315;50.836;4.430;2023-09-08T15:55:08;101020.47;;;33.40;43.66
27980;BME280;15315;50.836;4.430;2023-09-08T16:05:08;101018.00;;;34.05;43.66
27980;BME280;15315;50.836;4.430;2023-09-08T16:15:09;101028.00;;;34.17;43.60
27980;BME280;15315;50.836;4.430;2023-09-08T16:25:09;101013.22;;;34.22;43.43
27980;BME280;15315;50.836;4.430;2023-09-08T16:35:11;101018.13;;;34.48;43.14
27980;BME280;15315;50.836;4.430;2023-09-08T16:45:11;101012.50;;;34.86;43.99
27980;BME280;15315;50.836;4.430;2023-09-08T16:55:11;101006.53;;;36.63;41.78
27980;BME280;15315;50.836;4.430;2023-09-08T17:05:12;101025.78;;;37.74;39.34
27980;BME280;15315;50.836;4.430;2023-09-08T17:15:16;101009.66;;;37.34;39.35
27980;BME280;15315;50.836;4.430;2023-09-08T17:25:16;101016.22;;;36.41;39.51
27980;BME280;15315;50.836;4.430;2023-09-08T17:35:17;101009.72;;;35.35;41.16
27980;BME280;15315;50.836;4.430;2023-09-08T17:45:17;101022.38;;;34.72;43.82
27980;BME280;15315;50.836;4.430;2023-09-08T17:55:18;101023.31;;;34.23;45.04
27980;BME280;15315;50.836;4.430;2023-09-08T18:05:18;101038.81;;;33.64;46.96
27980;BME280;15315;50.836;4.430;2023-09-08T18:15:18;101034.22;;;33.01;49.00
27980;BME280;15315;50.836;4.430;2023-09-08T18:25:19;101043.13;;;32.87;49.60
27980;BME280;15315;50.836;4.430;2023-09-08T18:35:19;101054.19;;;32.47;51.46
27980;BME280;15315;50.836;4.430;2023-09-08T18:45:19;101056.75;;;32.14;53.04
27980;BME280;15315;50.836;4.430;2023-09-08T18:55:20;101064.13;;;32.08;53.43
27980;BME280;15315;50.836;4.430;2023-09-08T19:05:20;101070.88;;;31.77;55.14
27980;BME280;15315;50.836;4.430;2023-09-08T19:15:21;101067.00;;;31.49;56.30
27980;BME280;15315;50.836;4.430;2023-09-08T19:25:22;101078.03;;;31.25;58.22
27980;BME280;15315;50.836;4.430;2023-09-08T19:35:22;101075.19;;;31.14;59.26
27980;BME280;15315;50.836;4.430;2023-09-08T19:45:23;101081.84;;;30.95;59.85
27980;BME280;15315;50.836;4.430;2023-09-08T19:55:24;101080.94;;;30.83;60.82
27980;BME280;15315;50.836;4.430;2023-09-08T20:05:24;101085.50;;;30.52;61.56
27980;BME280;15315;50.836;4.430;2023-09-08T20:15:25;101083.16;;;30.31;62.40
27980;BME280;15315;50.836;4.430;2023-09-08T20:25:26;101087.03;;;29.99;61.89
27980;BME280;15315;50.836;4.430;2023-09-08T20:35:26;101096.06;;;29.94;60.43
27980;BME280;15315;50.836;4.430;2023-09-08T20:45:26;101085.97;;;30.00;60.30
27980;BME280;15315;50.836;4.430;2023-09-08T20:55:27;101089.66;;;29.94;59.18
27980;BME280;15315;50.836;4.430;2023-09-08T21:05:27;101094.84;;;29.84;57.79
27980;BME280;15315;50.836;4.430;2023-09-08T21:15:28;101105.88;;;29.72;57.78
27980;BME280;15315;50.836;4.430;2023-09-08T21:25:30;101100.81;;;29.63;57.87
27980;BME280;15315;50.836;4.430;2023-09-08T21:35:30;101096.13;;;29.50;59.07
27980;BME280;15315;50.836;4.430;2023-09-08T21:45:31;101098.13;;;29.36;60.26
27980;BME280;15315;50.836;4.430;2023-09-08T21:55:31;101087.53;;;29.20;62.08
27980;BME280;15315;50.836;4.430;2023-09-08T22:05:31;101084.41;;;29.04;62.35
27980;BME280;15315;50.836;4.430;2023-09-08T22:15:32;101086.78;;;28.93;61.92
27980;BME280;15315;50.836;4.430;2023-09-08T22:25:32;101076.16;;;28.77;62.41
27980;BME280;15315;50.836;4.430;2023-09-08T22:35:35;101073.63;;;28.56;62.68
27980;BME280;15315;50.836;4.430;2023-09-08T22:45:35;101076.41;;;28.43;63.31
27980;BME280;15315;50.836;4.430;2023-09-08T22:55:37;101065.97;;;28.25;63.86
27980;BME280;15315;50.836;4.430;2023-09-08T23:05:37;101062.56;;;28.23;63.47
27980;BME280;15315;50.836;4.430;2023-09-08T23:15:38;101063.84;;;27.95;64.17
27980;BME280;15315;50.836;4.430;2023-09-08T23:25:38;101063.66;;;28.03;63.83
27980;BME280;15315;50.836;4.430;2023-09-08T23:35:40;101070.47;;;27.81;65.43
27980;BME280;15315;50.836;4.430;2023-09-08T23:45:44;101074.25;;;27.47;67.93
27980;BME280;15315;50.836;4.430;2023-09-08T23:55:46;101075.00;;;27.28;68.77
